Time;durP1;ratioP1;P1;durP2;ratioP2;P2;SDS_P1;SDS_P2;PMS_P1;PMS_P2;Temp;Humidity;BMP_temperature;BMP_pressure;BME280_temperature;BME280_humidity;BME280_pressure;Samples;Min_cycle;Max_cycle;Signal;HPM_P1;HPM_P2
2021/03/17 00:01:31;;;;;;;3.20;1.60;;;8.00;81.00;;;;;;4979721;28;20076;-73
2021/03/17 00:04:17;;;;;;;3.33;1.52;;;8.00;81.00;;;;;;4979994;28;20049;-72
2021/03/17 00:07:03;;;;;;;2.92;1.40;;;8.10;80.10;;;;;;4972306;28;20831;-73
2021/03/17 00:09:49;;;;;;;3.20;1.43;;;7.90;79.30;;;;;;4978163;28;20045;-73
2021/03/17 00:12:35;;;;;;;1.90;1.15;;;7.80;79.50;;;;;;4980308;28;20704;-73
2021/03/17 00:15:22;;;;;;;4.35;1.75;;;7.90;79.10;;;;;;4976781;28;20587;-73
2021/03/17 00:18:10;;;;;;;3.10;1.58;;;7.80;79.30;;;;;;4981690;28;20225;-73
2021/03/17 00:20:57;;;;;;;3.40;1.63;;;7.80;79.60;;;;;;4982154;28;20432;-73
2021/03/17 00:23:42;;;;;;;4.05;2.35;;;7.80;79.70;;;;;;4978473;28;20518;-73
2021/03/17 00:26:29;;;;;;;6.40;2.13;;;7.80;80.10;;;;;;4972093;28;20108;-73
2021/03/17 00:29:14;;;;;;;3.45;2.05;;;7.70;80.40;;;;;;4974513;28;20045;-73
2021/03/17 00:32:00;;;;;;;3.58;1.98;;;7.70;80.50;;;;;;4979060;28;20068;-73
2021/03/17 00:34:47;;;;;;;5.20;2.10;;;7.70;80.80;;;;;;4980832;28;20089;-73
2021/03/17 00:37:33;;;;;;;4.57;2.03;;;7.70;80.80;;;;;;4979918;28;20217;-73
2021/03/17 00:40:20;;;;;;;3.78;1.75;;;7.60;80.80;;;;;;4977178;28;20372;-73
2021/03/17 00:43:06;;;;;;;6.22;1.80;;;7.60;80.90;;;;;;4976195;28;20092;-73
2021/03/17 00:45:52;;;;;;;2.45;1.33;;;7.50;81.20;;;;;;4980900;28;20144;-73
2021/03/17 00:48:25;;;;;;;3.80;1.70;;;7.40;81.20;;;;;;4980745;28;20133;-73
2021/03/17 00:51:06;;;;;;;2.35;1.30;;;7.50;81.40;;;;;;4975626;28;20133;-72
2021/03/17 00:53:52;;;;;;;2.95;1.60;;;7.50;81.30;;;;;;4976043;28;20507;-73
2021/03/17 00:56:21;;;;;;;4.28;1.83;;;7.40;81.30;;;;;;4978904;28;20120;-73
2021/03/17 00:58:49;;;;;;;3.50;1.80;;;7.50;81.00;;;;;;4964216;28;20117;-72
2021/03/17 01:01:16;;;;;;;2.83;1.70;;;7.30;81.20;;;;;;4976852;28;20121;-73
2021/03/17 01:03:43;;;;;;;3.85;1.80;;;7.50;81.20;;;;;;4976262;28;20034;-73
2021/03/17 01:06:12;;;;;;;3.15;1.88;;;7.40;81.30;;;;;;4976815;28;20038;-74
2021/03/17 01:08:39;;;;;;;4.10;2.15;;;7.30;81.70;;;;;;4959603;28;20053;-74
2021/03/17 01:11:06;;;;;;;4.50;2.00;;;7.20;82.20;;;;;;4973957;28;20038;-74
2021/03/17 01:13:33;;;;;;;4.25;2.28;;;7.20;82.40;;;;;;4981062;28;20397;-74
2021/03/17 01:16:00;;;;;;;4.50;1.90;;;7.20;82.20;;;;;;4979730;28;20049;-74
2021/03/17 01:18:29;;;;;;;4.72;2.40;;;7.20;82.20;;;;;;4974746;28;20042;-73
2021/03/17 01:20:56;;;;;;;4.85;2.42;;;7.10;82.70;;;;;;4978989;28;20042;-74
2021/03/17 01:23:24;;;;;;;3.97;2.22;;;7.10;82.60;;;;;;4976398;28;20412;-74
2021/03/17 01:25:52;;;;;;;5.05;2.20;;;6.90;83.10;;;;;;4981104;28;20527;-73
2021/03/17 01:28:19;;;;;;;6.35;2.40;;;6.80;83.50;;;;;;4976604;28;20069;-74
2021/03/17 01:30:49;;;;;;;4.45;2.13;;;6.80;83.70;;;;;;4975461;28;20035;-74
2021/03/17 01:33:18;;;;;;;3.08;2.03;;;6.70;83.90;;;;;;4955093;28;20038;-74
2021/03/17 01:35:48;;;;;;;5.78;1.98;;;6.70;83.90;;;;;;4979418;28;20397;-73
2021/03/17 01:38:15;;;;;;;3.15;1.98;;;6.60;84.00;;;;;;4977488;28;20038;-73
2021/03/17 01:40:45;;;;;;;5.63;2.00;;;6.50;84.50;;;;;;4976948;28;20602;-73
2021/03/17 01:43:13;;;;;;;4.00;2.30;;;6.60;83.90;;;;;;5008373;23;20946;-73
2021/03/17 01:45:42;;;;;;;2.97;1.58;;;6.60;83.90;;;;;;4964964;28;20038;-75
2021/03/17 01:48:10;;;;;;;2.85;1.50;;;6.70;83.50;;;;;;4963849;28;20046;-74
2021/03/17 01:50:46;;;;;;;2.97;1.98;;;6.50;83.70;;;;;;4982915;28;20125;-75
2021/03/17 01:53:16;;;;;;;4.33;1.67;;;6.60;83.90;;;;;;4977372;28;20075;-75
2021/03/17 01:55:45;;;;;;;5.38;1.95;;;6.70;83.50;;;;;;4977609;28;20046;-75
2021/03/17 01:58:13;;;;;;;3.20;1.70;;;6.60;83.50;;;;;;4981536;28;20038;-75
2021/03/17 02:00:40;;;;;;;3.50;1.80;;;6.70;83.50;;;;;;4980364;28;20157;-75
2021/03/17 02:03:09;;;;;;;4.25;1.83;;;6.60;83.40;;;;;;4979719;28;20069;-75
2021/03/17 02:05:40;;;;;;;3.50;1.80;;;6.60;83.70;;;;;;4980926;28;20045;-75
2021/03/17 02:08:10;;;;;;;4.50;2.05;;;6.50;83.50;;;;;;4977699;28;20047;-75
2021/03/17 02:10:37;;;;;;;4.65;2.00;;;6.30;84.00;;;;;;4973430;28;20044;-75
2021/03/17 02:13:22;;;;;;;2.80;1.63;;;6.30;84.40;;;;;;4971176;28;20689;-75
2021/03/17 02:16:00;;;;;;;4.00;1.77;;;6.20;84.60;;;;;;4980561;28;20452;-75
2021/03/17 02:18:41;;;;;;;5.75;2.40;;;6.20;85.10;;;;;;4976944;28;20408;-75
2021/03/17 02:21:38;;;;;;;4.70;2.25;;;6.20;85.20;;;;;;4984660;28;20041;-74
2021/03/17 02:24:12;;;;;;;3.53;2.47;;;6.20;85.20;;;;;;4980233;28;20060;-75
2021/03/17 02:26:56;;;;;;;3.05;1.60;;;6.20;85.10;;;;;;4978720;28;20051;-75
2021/03/17 02:29:48;;;;;;;2.95;1.83;;;6.10;85.30;;;;;;4976767;28;20500;-75
2021/03/17 02:32:23;;;;;;;3.78;1.67;;;6.10;85.40;;;;;;4994984;28;20459;-75
2021/03/17 02:34:58;;;;;;;3.33;1.50;;;6.20;85.10;;;;;;4985301;28;20042;-75
2021/03/17 02:37:27;;;;;;;2.67;1.50;;;6.10;85.50;;;;;;4972285;28;20042;-74
2021/03/17 02:40:02;;;;;;;2.55;1.30;;;6.10;85.50;;;;;;4978618;28;20038;-75
2021/03/17 02:42:35;;;;;;;4.75;1.85;;;6.20;85.40;;;;;;5005637;28;20452;-75
2021/03/17 02:45:05;;;;;;;2.55;1.40;;;6.20;85.20;;;;;;4978959;28;20130;-75
2021/03/17 02:47:36;;;;;;;3.05;1.25;;;6.20;84.90;;;;;;4975373;28;20170;-75
2021/03/17 02:50:07;;;;;;;3.03;1.55;;;6.10;85.20;;;;;;5009738;28;20584;-75
2021/03/17 02:52:39;;;;;;;4.72;2.03;;;6.10;85.30;;;;;;4980315;28;20045;-75
2021/03/17 02:55:08;;;;;;;5.03;1.60;;;6.10;85.40;;;;;;5010676;28;20046;-75
2021/03/17 02:57:39;;;;;;;4.88;2.40;;;6.10;85.50;;;;;;4975926;28;20062;-75
2021/03/17 03:00:09;;;;;;;3.50;2.05;;;5.90;85.50;;;;;;5008916;28;20182;-75
2021/03/17 03:02:39;;;;;;;3.78;2.10;;;6.00;85.60;;;;;;4978998;28;20484;-74
2021/03/17 03:05:11;;;;;;;5.68;1.92;;;5.90;85.50;;;;;;4980704;28;20042;-74
2021/03/17 03:07:41;;;;;;;2.55;1.30;;;5.90;85.50;;;;;;4989825;28;20142;-75
2021/03/17 03:10:11;;;;;;;3.40;1.77;;;6.00;85.30;;;;;;4978589;28;20042;-74
2021/03/17 03:12:40;;;;;;;4.15;1.50;;;5.90;85.10;;;;;;4977896;28;20443;-74
2021/03/17 03:15:10;;;;;;;2.00;1.40;;;5.80;85.30;;;;;;4981873;28;20049;-74
2021/03/17 03:17:39;;;;;;;2.15;1.23;;;5.70;85.30;;;;;;4982585;28;20047;-75
2021/03/17 03:20:09;;;;;;;2.90;1.20;;;5.70;85.40;;;;;;4976196;28;20074;-75
2021/03/17 03:22:40;;;;;;;2.63;1.35;;;5.80;85.00;;;;;;4977165;28;20050;-75
2021/03/17 03:25:09;;;;;;;2.20;1.10;;;5.70;85.20;;;;;;4979862;28;20158;-75
2021/03/17 03:27:37;;;;;;;4.57;1.23;;;5.70;85.30;;;;;;4982534;28;20511;-75
2021/03/17 03:30:07;;;;;;;2.28;1.27;;;5.70;85.10;;;;;;4982162;28;20566;-74
2021/03/17 03:32:34;;;;;;;1.85;1.25;;;5.80;84.80;;;;;;4984168;28;20046;-75
2021/03/17 03:35:04;;;;;;;2.05;0.90;;;5.70;84.70;;;;;;4981934;28;20042;-74
2021/03/17 03:37:32;;;;;;;3.05;1.20;;;5.60;84.90;;;;;;4981390;28;20042;-74
2021/03/17 03:39:59;;;;;;;2.13;0.95;;;5.60;84.90;;;;;;4979196;28;20046;-75
2021/03/17 03:42:26;;;;;;;1.67;0.88;;;5.50;85.20;;;;;;4978529;28;20464;-75
2021/03/17 03:44:54;;;;;;;2.25;1.10;;;5.60;85.10;;;;;;4979092;28;20635;-74
2021/03/17 03:47:21;;;;;;;2.67;1.17;;;5.40;85.00;;;;;;4979534;28;20799;-75
2021/03/17 03:49:48;;;;;;;2.47;1.35;;;5.20;85.90;;;;;;4980718;28;20073;-74
2021/03/17 03:52:24;;;;;;;2.47;1.00;;;5.30;86.00;;;;;;4983817;28;20046;-74
2021/03/17 03:55:00;;;;;;;3.00;1.65;;;5.30;86.10;;;;;;4978944;28;20042;-74
2021/03/17 03:57:32;;;;;;;2.97;1.15;;;5.30;86.10;;;;;;4983615;28;20110;-75
2021/03/17 04:00:05;;;;;;;2.13;1.38;;;5.30;86.20;;;;;;4982872;28;20607;-74
2021/03/17 04:02:36;;;;;;;2.88;1.50;;;5.30;86.50;;;;;;5011043;28;20062;-74
2021/03/17 04:05:05;;;;;;;3.00;1.50;;;5.30;86.70;;;;;;4980780;28;20116;-74
2021/03/17 04:07:35;;;;;;;2.28;1.45;;;5.30;86.60;;;;;;4983699;28;20175;-74
2021/03/17 04:10:07;;;;;;;3.30;1.58;;;5.30;86.60;;;;;;4978852;28;20391;-71
2021/03/17 04:12:38;;;;;;;3.45;1.80;;;5.30;86.90;;;;;;5008722;28;20414;-71
2021/03/17 04:15:10;;;;;;;5.53;1.70;;;5.40;86.70;;;;;;4979337;28;20052;-71
2021/03/17 04:17:43;;;;;;;2.80;1.60;;;5.30;86.80;;;;;;4980920;28;20046;-72
2021/03/17 04:20:15;;;;;;;2.40;1.30;;;5.30;86.70;;;;;;4983532;28;20098;-71
2021/03/17 04:22:44;;;;;;;3.05;1.80;;;5.30;86.70;;;;;;4982083;28;20057;-72
2021/03/17 04:25:15;;;;;;;2.10;1.40;;;5.30;86.90;;;;;;4983970;28;20041;-71
2021/03/17 04:27:46;;;;;;;3.15;1.60;;;5.30;86.90;;;;;;4979225;28;20050;-72
2021/03/17 04:30:16;;;;;;;3.83;1.90;;;5.10;87.20;;;;;;4978170;28;20038;-72
2021/03/17 04:32:46;;;;;;;2.65;1.40;;;5.00;87.40;;;;;;4978940;28;20818;-72
2021/03/17 04:35:16;;;;;;;5.65;1.80;;;5.00;87.80;;;;;;4977673;28;20150;-72
2021/03/17 04:37:47;;;;;;;5.65;1.92;;;5.00;87.70;;;;;;4981828;28;20268;-72
2021/03/17 04:40:17;;;;;;;3.53;1.65;;;4.90;87.90;;;;;;4983078;28;20074;-72
2021/03/17 04:42:44;;;;;;;2.13;1.48;;;5.00;88.10;;;;;;4962970;28;20047;-72
2021/03/17 04:45:14;;;;;;;3.78;1.52;;;5.00;87.90;;;;;;4982086;28;20043;-72
2021/03/17 04:47:42;;;;;;;4.20;1.60;;;5.00;87.80;;;;;;4963494;28;20035;-72
2021/03/17 04:50:13;;;;;;;3.78;1.50;;;4.90;88.10;;;;;;4998499;28;20046;-71
2021/03/17 04:52:42;;;;;;;4.80;1.60;;;4.90;88.30;;;;;;4977758;28;20039;-72
2021/03/17 04:55:11;;;;;;;3.22;1.38;;;4.80;88.50;;;;;;4980502;28;20135;-72
2021/03/17 04:57:41;;;;;;;3.22;1.55;;;4.80;88.80;;;;;;4989468;28;20046;-72
2021/03/17 05:00:11;;;;;;;3.25;1.15;;;4.90;88.80;;;;;;4973892;28;20038;-72
2021/03/17 05:02:42;;;;;;;2.47;1.30;;;4.80;88.60;;;;;;4997564;28;20046;-72
2021/03/17 05:05:13;;;;;;;2.85;1.38;;;4.90;88.90;;;;;;4979576;28;20052;-72
2021/03/17 05:07:42;;;;;;;3.17;1.48;;;4.80;88.90;;;;;;4979944;28;20042;-72
2021/03/17 05:10:11;;;;;;;5.68;1.30;;;4.90;88.90;;;;;;4967995;28;20049;-72
2021/03/17 05:12:39;;;;;;;2.25;1.00;;;5.00;88.50;;;;;;4982684;28;20039;-72
2021/03/17 05:15:09;;;;;;;2.15;1.40;;;4.80;88.40;;;;;;4978144;28;20779;-72
2021/03/17 05:17:46;;;;;;;4.13;1.70;;;4.80;88.80;;;;;;4982081;28;20054;-72
2021/03/17 05:20:17;;;;;;;2.83;1.27;;;4.80;88.30;;;;;;4971526;28;20413;-71
2021/03/17 05:22:45;;;;;;;2.67;1.30;;;4.80;88.20;;;;;;4984883;28;20046;-72
2021/03/17 05:25:15;;;;;;;2.78;1.50;;;4.80;88.30;;;;;;4976996;28;20042;-73
2021/03/17 05:27:46;;;;;;;5.85;1.48;;;4.80;88.50;;;;;;4981641;28;20042;-73
2021/03/17 05:30:15;;;;;;;4.72;1.58;;;4.90;88.20;;;;;;4994241;28;20050;-73
2021/03/17 05:32:44;;;;;;;3.78;1.45;;;4.90;87.80;;;;;;4976719;28;20042;-73
2021/03/17 05:35:13;;;;;;;2.60;1.15;;;5.00;87.40;;;;;;4998410;28;20074;-72
2021/03/17 05:37:41;;;;;;;3.25;1.20;;;5.00;87.30;;;;;;4963216;28;20565;-72
2021/03/17 05:40:12;;;;;;;2.35;1.48;;;4.90;87.10;;;;;;4978339;28;20046;-72
2021/03/17 05:42:40;;;;;;;3.35;2.10;;;4.90;87.40;;;;;;4976779;28;20129;-72
2021/03/17 05:45:12;;;;;;;3.92;2.60;;;4.80;87.90;;;;;;4977909;28;20097;-72
2021/03/17 05:47:43;;;;;;;3.15;2.03;;;4.90;87.90;;;;;;4979717;28;20038;-71
2021/03/17 05:50:14;;;;;;;4.75;2.03;;;4.90;88.10;;;;;;4975752;28;20062;-72
2021/03/17 05:52:43;;;;;;;3.08;2.03;;;5.00;87.90;;;;;;4979489;28;20050;-72
2021/03/17 05:55:14;;;;;;;7.25;2.30;;;5.00;87.80;;;;;;4979108;28;20053;-72
2021/03/17 05:57:42;;;;;;;5.28;3.38;;;5.10;88.00;;;;;;4979594;28;20038;-72
2021/03/17 06:00:12;;;;;;;6.55;2.97;;;5.30;87.80;;;;;;4977755;28;20109;-72
2021/03/17 06:02:40;;;;;;;4.63;2.47;;;5.40;87.40;;;;;;4979926;28;20669;-72
2021/03/17 06:05:10;;;;;;;3.17;1.80;;;5.40;86.90;;;;;;4978152;28;20038;-72
2021/03/17 06:07:43;;;;;;;4.53;2.17;;;5.40;86.90;;;;;;4976935;28;20065;-72
2021/03/17 06:10:12;;;;;;;3.97;2.88;;;5.50;87.00;;;;;;5009468;28;20046;-72
2021/03/17 06:12:41;;;;;;;6.00;2.83;;;5.60;87.10;;;;;;4984983;28;20058;-72
2021/03/17 06:15:14;;;;;;;4.13;2.17;;;5.60;87.10;;;;;;4993293;28;20039;-72
2021/03/17 06:17:44;;;;;;;3.10;1.42;;;5.50;87.30;;;;;;4982314;28;20125;-72
2021/03/17 06:20:14;;;;;;;3.15;2.03;;;5.60;87.40;;;;;;4984367;28;20130;-72
2021/03/17 06:22:42;;;;;;;3.38;2.03;;;5.60;86.90;;;;;;4977720;28;20142;-72
2021/03/17 06:25:10;;;;;;;4.20;1.85;;;5.50;87.30;;;;;;5007411;28;20054;-72
2021/03/17 06:27:38;;;;;;;3.78;2.05;;;5.60;87.20;;;;;;4977980;28;20128;-72
2021/03/17 06:30:07;;;;;;;3.88;2.17;;;5.70;87.10;;;;;;4977467;28;20053;-72
2021/03/17 06:32:36;;;;;;;4.85;2.78;;;5.50;87.10;;;;;;4979407;28;20531;-72
2021/03/17 06:35:18;;;;;;;4.40;2.10;;;5.50;87.40;;;;;;4980919;28;20042;-72
2021/03/17 06:37:49;;;;;;;3.50;1.70;;;5.70;87.00;;;;;;4978130;28;20128;-72
2021/03/17 06:40:22;;;;;;;3.45;2.22;;;5.60;87.00;;;;;;4978689;28;20049;-72
2021/03/17 06:42:50;;;;;;;3.63;1.70;;;5.60;87.10;;;;;;4977757;28;20089;-72
2021/03/17 06:45:29;;;;;;;3.47;2.03;;;5.50;87.40;;;;;;4979808;28;20054;-72
2021/03/17 06:48:15;;;;;;;3.35;1.98;;;5.40;87.60;;;;;;4969838;28;20034;-72
2021/03/17 06:50:43;;;;;;;4.30;2.00;;;5.50;87.80;;;;;;4977873;28;20058;-72
2021/03/17 06:53:11;;;;;;;5.05;1.77;;;5.60;87.70;;;;;;4974635;28;20125;-72
2021/03/17 06:55:39;;;;;;;3.10;1.95;;;5.60;87.80;;;;;;4975138;28;20045;-72
2021/03/17 06:58:06;;;;;;;4.85;2.88;;;5.60;88.10;;;;;;4999001;28;20579;-72
2021/03/17 07:00:35;;;;;;;3.38;1.88;;;5.70;88.00;;;;;;4981843;28;20046;-72
2021/03/17 07:03:11;;;;;;;6.28;2.72;;;5.60;87.90;;;;;;4979145;28;20066;-72
2021/03/17 07:05:41;;;;;;;3.85;2.42;;;5.60;88.10;;;;;;4980157;28;20046;-72
2021/03/17 07:08:10;;;;;;;6.13;2.78;;;5.70;88.20;;;;;;4965627;28;20276;-72
2021/03/17 07:10:57;;;;;;;4.57;2.25;;;5.80;87.90;;;;;;4981655;28;20121;-72
2021/03/17 07:13:26;;;;;;;4.50;2.30;;;5.90;87.60;;;;;;4981264;28;20042;-73
2021/03/17 07:15:55;;;;;;;3.70;1.90;;;6.10;87.30;;;;;;4977874;28;20050;-72
2021/03/17 07:18:26;;;;;;;5.47;2.15;;;6.20;87.00;;;;;;4981229;28;20519;-72
2021/03/17 07:20:56;;;;;;;3.38;2.30;;;6.20;87.10;;;;;;4978535;28;20381;-72
2021/03/17 07:23:27;;;;;;;6.28;2.97;;;6.30;87.20;;;;;;4966687;28;20101;-72
2021/03/17 07:26:12;;;;;;;4.72;2.58;;;6.30;87.20;;;;;;4980565;28;20124;-73
2021/03/17 07:28:49;;;;;;;5.43;2.92;;;6.30;87.60;;;;;;4981136;28;20285;-73
2021/03/17 07:31:18;;;;;;;7.53;3.00;;;6.40;87.60;;;;;;4997592;28;20513;-72
2021/03/17 07:33:48;;;;;;;4.10;2.60;;;6.40;87.70;;;;;;4977242;28;20041;-73
2021/03/17 07:36:31;;;;;;;4.10;2.65;;;6.60;87.80;;;;;;4980586;28;20042;-72
2021/03/17 07:39:01;;;;;;;4.07;2.30;;;6.70;87.30;;;;;;4973396;28;20129;-72
2021/03/17 07:41:31;;;;;;;4.35;2.38;;;6.80;87.40;;;;;;4981464;28;20035;-72
2021/03/17 07:43:59;;;;;;;6.03;2.50;;;6.70;87.30;;;;;;4983266;28;20046;-72
2021/03/17 07:46:27;;;;;;;4.97;2.22;;;6.80;87.40;;;;;;4992299;28;20047;-72
2021/03/17 07:49:05;;;;;;;4.55;2.42;;;7.00;87.10;;;;;;4981291;28;20050;-72
2021/03/17 07:51:39;;;;;;;6.88;2.60;;;7.20;87.00;;;;;;4984640;28;20074;-73
2021/03/17 07:54:08;;;;;;;4.75;2.25;;;7.20;87.00;;;;;;4979221;28;20042;-72
2021/03/17 07:56:38;;;;;;;4.13;2.45;;;7.30;86.90;;;;;;4980267;28;20516;-73
2021/03/17 07:59:05;;;;;;;3.17;2.63;;;7.30;87.00;;;;;;4996894;28;20074;-73
2021/03/17 08:01:34;;;;;;;4.82;2.50;;;7.40;86.60;;;;;;5006067;28;20405;-73
2021/03/17 08:04:19;;;;;;;6.97;2.70;;;7.50;86.30;;;;;;4985596;28;20034;-74
2021/03/17 08:06:55;;;;;;;4.57;2.60;;;7.50;86.10;;;;;;4978421;28;20034;-73
2021/03/17 08:09:22;;;;;;;5.70;2.42;;;7.70;86.10;;;;;;4978285;28;20038;-73
2021/03/17 08:11:51;;;;;;;4.07;2.33;;;7.70;85.20;;;;;;4987232;28;20042;-74
2021/03/17 08:14:20;;;;;;;6.03;2.25;;;7.80;84.60;;;;;;4980521;28;20137;-74
2021/03/17 08:16:47;;;;;;;3.33;2.35;;;8.00;84.40;;;;;;4978221;28;20575;-73
2021/03/17 08:19:25;;;;;;;3.88;2.03;;;8.10;84.10;;;;;;5008831;28;20046;-74
2021/03/17 08:21:55;;;;;;;2.92;2.03;;;8.20;83.30;;;;;;4973050;28;20628;-74
2021/03/17 08:24:38;;;;;;;3.88;2.35;;;8.30;82.90;;;;;;4989517;28;20048;-74
2021/03/17 08:27:21;;;;;;;4.43;2.38;;;8.40;82.40;;;;;;4964541;28;20049;-74
2021/03/17 08:29:51;;;;;;;4.85;2.60;;;8.40;82.00;;;;;;4977936;28;20053;-73
2021/03/17 08:32:20;;;;;;;3.45;2.22;;;8.60;81.80;;;;;;4989523;28;20092;-73
2021/03/17 08:34:57;;;;;;;4.72;2.63;;;8.80;81.40;;;;;;4984858;28;20069;-74
2021/03/17 08:37:47;;;;;;;3.78;2.50;;;9.00;81.20;;;;;;4981167;28;20080;-74
2021/03/17 08:40:43;;;;;;;5.00;2.63;;;9.20;79.70;;;;;;4976991;28;20130;-74
2021/03/17 08:43:41;;;;;;;4.07;2.70;;;9.60;78.50;;;;;;4962441;28;20054;-74
2021/03/17 08:46:10;;;;;;;6.50;3.10;;;9.80;77.50;;;;;;4983516;28;20408;-74
2021/03/17 08:48:59;;;;;;;7.60;3.40;;;9.90;76.80;;;;;;4989428;28;20580;-74
2021/03/17 08:51:56;;;;;;;7.57;3.05;;;10.00;76.90;;;;;;4976725;28;20600;-73
2021/03/17 08:54:47;;;;;;;4.43;2.80;;;10.20;76.40;;;;;;4978783;28;20516;-75
2021/03/17 08:57:15;;;;;;;5.72;2.72;;;10.20;76.60;;;;;;4977240;28;20047;-73
2021/03/17 08:59:45;;;;;;;5.25;2.75;;;10.30;76.00;;;;;;4979569;28;20405;-74
2021/03/17 09:02:19;;;;;;;4.43;2.67;;;10.40;75.40;;;;;;4980945;28;20127;-74
2021/03/17 09:04:48;;;;;;;4.90;2.58;;;10.50;75.40;;;;;;4975130;28;20042;-74
2021/03/17 09:07:17;;;;;;;4.95;2.92;;;10.50;74.20;;;;;;4977347;28;20046;-74
2021/03/17 09:09:47;;;;;;;4.47;2.50;;;10.60;74.90;;;;;;4979707;28;20050;-74
2021/03/17 09:12:15;;;;;;;4.30;2.63;;;10.80;75.20;;;;;;4980990;28;20038;-74
2021/03/17 09:14:43;;;;;;;6.00;3.10;;;10.90;74.80;;;;;;4981467;28;20440;-74
2021/03/17 09:17:17;;;;;;;6.50;2.83;;;10.90;74.90;;;;;;4979748;28;20038;-74
2021/03/17 09:20:02;;;;;;;5.80;2.60;;;11.00;74.60;;;;;;4975183;28;20066;-74
2021/03/17 09:22:35;;;;;;;3.25;1.80;;;11.00;74.40;;;;;;4965141;28;20062;-71
2021/03/17 09:25:17;;;;;;;4.50;2.75;;;11.00;73.40;;;;;;4980340;28;20051;-73
2021/03/17 09:27:48;;;;;;;4.55;2.50;;;11.10;73.00;;;;;;4975875;28;20518;-75
2021/03/17 09:30:17;;;;;;;4.43;2.67;;;11.30;72.40;;;;;;4975002;28;20053;-73
2021/03/17 09:32:46;;;;;;;4.30;2.50;;;11.40;71.80;;;;;;4993602;28;20512;-73
2021/03/17 09:35:15;;;;;;;5.80;2.40;;;11.50;71.70;;;;;;4961764;28;20420;-74
2021/03/17 09:37:44;;;;;;;4.45;2.55;;;11.70;71.90;;;;;;5007586;28;20668;-74
2021/03/17 09:40:17;;;;;;;3.88;2.60;;;11.80;71.60;;;;;;4978771;28;20135;-71
2021/03/17 09:42:45;;;;;;;3.60;2.53;;;11.90;70.70;;;;;;4978776;28;20407;-77
2021/03/17 09:45:12;;;;;;;3.78;2.17;;;12.00;68.90;;;;;;4969321;28;20154;-75
2021/03/17 09:47:40;;;;;;;6.43;3.35;;;12.10;66.80;;;;;;4977580;28;20042;-74
2021/03/17 09:50:16;;;;;;;6.60;3.03;;;12.20;66.30;;;;;;4981160;28;20125;-75
2021/03/17 09:52:44;;;;;;;3.88;2.13;;;12.40;65.10;;;;;;4977717;28;20038;-76
2021/03/17 09:55:28;;;;;;;5.85;2.00;;;12.60;63.30;;;;;;4976768;28;20092;-76
2021/03/17 09:58:09;;;;;;;3.80;2.58;;;12.70;63.90;;;;;;4975226;28;20378;-75
2021/03/17 10:00:48;;;;;;;3.85;2.00;;;12.90;63.80;;;;;;4978536;28;20053;-75
2021/03/17 10:03:16;;;;;;;3.35;2.38;;;13.00;63.70;;;;;;4977098;28;20314;-74
2021/03/17 10:05:44;;;;;;;3.58;1.80;;;13.10;62.60;;;;;;4995805;28;20543;-76
2021/03/17 10:08:15;;;;;;;2.60;1.58;;;13.20;63.00;;;;;;4977753;28;20050;-74
2021/03/17 10:10:43;;;;;;;2.05;1.40;;;13.30;61.30;;;;;;4981279;28;20515;-77
2021/03/17 10:13:15;;;;;;;5.30;1.45;;;13.50;60.20;;;;;;4975653;28;20611;-75
2021/03/17 10:15:43;;;;;;;2.17;1.50;;;13.40;60.70;;;;;;4977927;28;20488;-73
2021/03/17 10:18:15;;;;;;;2.75;1.27;;;13.40;60.50;;;;;;4961469;28;20042;-76
2021/03/17 10:20:43;;;;;;;1.92;1.33;;;13.40;61.50;;;;;;4981475;28;20046;-74
2021/03/17 10:23:10;;;;;;;2.58;1.38;;;13.50;61.30;;;;;;4979047;28;20039;-77
2021/03/17 10:25:37;;;;;;;3.03;1.60;;;13.60;60.60;;;;;;4969399;28;20082;-74
2021/03/17 10:28:09;;;;;;;2.15;1.52;;;13.70;60.00;;;;;;4975754;28;20046;-74
2021/03/17 10:30:39;;;;;;;2.03;1.50;;;13.90;59.30;;;;;;4979436;28;20070;-73
2021/03/17 10:33:09;;;;;;;3.00;1.38;;;14.00;58.30;;;;;;4979526;28;20035;-74
2021/03/17 10:35:38;;;;;;;6.32;2.13;;;14.10;59.50;;;;;;4976459;28;20112;-73
2021/03/17 10:38:07;;;;;;;4.32;2.50;;;14.30;60.20;;;;;;4976350;28;20375;-74
2021/03/17 10:40:37;;;;;;;2.20;1.42;;;14.50;59.80;;;;;;4977388;28;20050;-73
2021/03/17 10:43:12;;;;;;;2.70;1.30;;;14.50;58.40;;;;;;4977338;28;20050;-74
2021/03/17 10:45:44;;;;;;;3.47;1.55;;;14.60;57.70;;;;;;4980824;28;20050;-74
2021/03/17 10:48:13;;;;;;;3.25;1.80;;;14.80;57.70;;;;;;4960648;28;20509;-73
2021/03/17 10:50:42;;;;;;;3.38;1.70;;;14.80;57.20;;;;;;4975860;28;20302;-72
2021/03/17 10:53:18;;;;;;;2.63;2.00;;;14.70;57.90;;;;;;4976251;28;20125;-74
2021/03/17 10:55:47;;;;;;;4.13;2.10;;;14.50;59.20;;;;;;4978173;28;20133;-73
2021/03/17 10:58:17;;;;;;;2.45;2.00;;;14.50;58.50;;;;;;4988107;28;20070;-74
2021/03/17 11:00:45;;;;;;;2.17;1.67;;;14.70;58.70;;;;;;4975853;28;20047;-74
2021/03/17 11:03:28;;;;;;;1.92;1.58;;;14.80;58.50;;;;;;4981429;28;20065;-75
2021/03/17 11:06:11;;;;;;;2.72;1.80;;;15.00;57.70;;;;;;4978470;28;20046;-74
2021/03/17 11:08:38;;;;;;;3.15;1.45;;;15.30;57.90;;;;;;4977576;28;20054;-74
2021/03/17 11:11:06;;;;;;;2.40;1.55;;;15.50;56.20;;;;;;4962470;28;20046;-74
2021/03/17 11:13:37;;;;;;;2.15;1.35;;;15.50;55.70;;;;;;4973939;28;20038;-74
2021/03/17 11:16:09;;;;;;;1.70;0.90;;;15.30;56.00;;;;;;4977127;28;20042;-74
2021/03/17 11:18:38;;;;;;;1.58;1.20;;;15.20;54.50;;;;;;4995261;28;20050;-74
2021/03/17 11:21:07;;;;;;;2.00;1.30;;;15.30;55.00;;;;;;4979129;28;20046;-73
2021/03/17 11:23:36;;;;;;;1.17;0.80;;;15.40;54.40;;;;;;4978381;28;20054;-74
2021/03/17 11:26:05;;;;;;;1.15;0.65;;;15.50;53.10;;;;;;4977043;28;20072;-74
2021/03/17 11:28:38;;;;;;;1.58;0.88;;;15.60;51.30;;;;;;4974486;28;20047;-74
2021/03/17 11:31:08;;;;;;;3.47;1.30;;;15.80;52.10;;;;;;4978251;28;20504;-74
2021/03/17 11:33:36;;;;;;;1.50;1.00;;;16.00;53.40;;;;;;4981627;28;20323;-74
2021/03/17 11:36:06;;;;;;;2.00;1.25;;;16.10;52.00;;;;;;4982682;28;20046;-73
2021/03/17 11:38:33;;;;;;;1.85;0.90;;;16.20;52.00;;;;;;4977457;28;20049;-73
2021/03/17 11:41:01;;;;;;;3.20;1.33;;;16.20;51.20;;;;;;4973194;28;20121;-74
2021/03/17 11:43:30;;;;;;;0.80;0.50;;;16.20;49.10;;;;;;4983852;28;20046;-73
2021/03/17 11:46:00;;;;;;;0.75;0.28;;;16.10;49.10;;;;;;4977807;28;20051;-72
2021/03/17 11:48:28;;;;;;;0.50;0.30;;;16.00;47.50;;;;;;4978402;28;20038;-72
2021/03/17 11:50:59;;;;;;;7.28;0.55;;;16.10;45.40;;;;;;4982583;28;20069;-73
2021/03/17 11:53:27;;;;;;;0.65;0.30;;;16.20;45.00;;;;;;4982613;28;20104;-73
2021/03/17 11:55:55;;;;;;;1.13;0.68;;;16.30;45.60;;;;;;4976853;28;20048;-73
2021/03/17 11:58:22;;;;;;;1.02;0.52;;;16.50;47.10;;;;;;4977740;28;20388;-77
2021/03/17 12:00:49;;;;;;;0.90;0.70;;;16.60;46.90;;;;;;4980788;28;20038;-74
2021/03/17 12:03:36;;;;;;;1.60;0.73;;;16.60;46.80;;;;;;4994644;28;20086;-73
2021/03/17 12:06:05;;;;;;;1.05;0.52;;;16.70;46.80;;;;;;4996146;28;20125;-73
2021/03/17 12:08:34;;;;;;;0.88;0.55;;;16.70;47.30;;;;;;4980672;28;20434;-72
2021/03/17 12:11:20;;;;;;;0.85;0.60;;;16.80;47.00;;;;;;4985148;28;20416;-72
2021/03/17 12:13:49;;;;;;;1.15;0.52;;;17.10;46.20;;;;;;4978050;28;20042;-72
2021/03/17 12:16:17;;;;;;;1.35;0.80;;;17.20;46.00;;;;;;4978869;28;20451;-72
2021/03/17 12:18:46;;;;;;;0.93;0.60;;;17.30;46.80;;;;;;4976390;28;20503;-72
2021/03/17 12:21:13;;;;;;;1.17;0.75;;;17.30;46.90;;;;;;4982147;28;20100;-72
2021/03/17 12:23:41;;;;;;;1.52;0.50;;;17.50;47.80;;;;;;4980312;28;20054;-72
2021/03/17 12:26:08;;;;;;;2.50;0.70;;;17.60;46.70;;;;;;4979259;28;20039;-72
2021/03/17 12:28:36;;;;;;;1.05;0.50;;;17.20;47.00;;;;;;4982344;28;20058;-73
2021/03/17 12:31:03;;;;;;;0.80;0.60;;;17.00;46.80;;;;;;4978875;28;20412;-73
2021/03/17 12:33:31;;;;;;;0.88;0.60;;;17.00;45.70;;;;;;4995253;28;20039;-72
2021/03/17 12:35:59;;;;;;;0.98;0.70;;;17.20;45.10;;;;;;4982633;28;20049;-73
2021/03/17 12:38:27;;;;;;;1.08;0.90;;;17.50;46.00;;;;;;4980413;28;20039;-72
2021/03/17 12:40:54;;;;;;;5.15;1.05;;;17.60;45.00;;;;;;4978905;28;20405;-72
2021/03/17 12:43:22;;;;;;;1.67;0.80;;;17.60;47.00;;;;;;4975636;28;20060;-72
2021/03/17 12:45:50;;;;;;;1.13;0.60;;;17.70;45.90;;;;;;5015204;28;20519;-72
2021/03/17 12:48:19;;;;;;;1.25;0.75;;;18.00;46.60;;;;;;4979567;28;20138;-72
2021/03/17 12:50:46;;;;;;;1.40;0.70;;;18.00;45.80;;;;;;4981938;28;20050;-72
2021/03/17 12:53:25;;;;;;;1.40;0.52;;;18.20;44.50;;;;;;4977842;28;20071;-72
2021/03/17 12:55:53;;;;;;;2.22;0.82;;;18.30;45.70;;;;;;4965888;28;20559;-73
2021/03/17 12:58:20;;;;;;;0.80;0.60;;;18.30;44.60;;;;;;4981043;28;20101;-72
2021/03/17 13:00:47;;;;;;;1.13;0.77;;;17.80;43.90;;;;;;4982746;28;20152;-72
2021/03/17 13:03:15;;;;;;;1.08;0.65;;;17.70;44.60;;;;;;4988943;28;20046;-73
2021/03/17 13:05:42;;;;;;;1.20;0.77;;;17.50;44.00;;;;;;4964241;28;20042;-72
2021/03/17 13:08:09;;;;;;;1.25;0.70;;;17.50;43.20;;;;;;4978773;28;20599;-72
2021/03/17 13:10:38;;;;;;;1.05;0.60;;;17.60;44.30;;;;;;4975912;28;20034;-73
2021/03/17 13:13:05;;;;;;;2.15;1.40;;;18.00;43.80;;;;;;4980217;28;20106;-73
2021/03/17 13:15:34;;;;;;;1.95;0.80;;;18.20;44.40;;;;;;4978272;28;20053;-73
2021/03/17 13:18:01;;;;;;;0.82;0.55;;;18.40;44.80;;;;;;4980181;28;20499;-72